Time;durP1;ratioP1;P1;durP2;ratioP2;P2;SDS_P1;SDS_P2;PMS_P1;PMS_P2;Temp;Humidity;BMP_temperature;BMP_pressure;BME280_temperature;BME280_humidity;BME280_pressure;Samples;Min_cycle;Max_cycle;Signal;HPM_P1;HPM_P2
2021/06/24 00:02:14;;;;;;;;;;;21.50;71.60;;;;;;5052897;28;1906;-66
2021/06/24 00:04:39;;;;;;;;;;;21.50;71.60;;;;;;5052490;28;1643;-67
2021/06/24 00:07:05;;;;;;;;;;;21.50;71.60;;;;;;5053226;28;1262;-66
2021/06/24 00:09:30;;;;;;;;;;;21.50;71.60;;;;;;5053295;28;1383;-67
2021/06/24 00:11:55;;;;;;;;;;;21.50;71.60;;;;;;5053214;28;1529;-66
2021/06/24 00:14:21;;;;;;;;;;;21.50;71.60;;;;;;5052424;28;1665;-67
2021/06/24 00:16:46;;;;;;;;;;;21.50;71.60;;;;;;5053103;28;1672;-67
2021/06/24 00:19:12;;;;;;;;;;;21.50;71.60;;;;;;5052738;28;1369;-67
2021/06/24 00:21:37;;;;;;;;;;;21.50;71.60;;;;;;5053116;28;1962;-65
2021/06/24 00:24:03;;;;;;;;;;;21.50;71.60;;;;;;5052541;28;1365;-67
2021/06/24 00:26:28;;;;;;;;;;;21.50;71.60;;;;;;5052610;28;1604;-66
2021/06/24 00:28:53;;;;;;;;;;;21.50;71.70;;;;;;5052904;28;1383;-66
2021/06/24 00:31:19;;;;;;;;;;;21.50;71.60;;;;;;5052561;28;1697;-67
2021/06/24 00:33:44;;;;;;;;;;;21.50;71.60;;;;;;5034525;28;1670;-66
2021/06/24 00:36:10;;;;;;;;;;;21.50;71.60;;;;;;5052407;28;1439;-67
2021/06/24 00:38:35;;;;;;;;;;;21.50;71.60;;;;;;5053012;28;1659;-67
2021/06/24 00:41:00;;;;;;;;;;;21.50;71.60;;;;;;5052620;28;1905;-67
2021/06/24 00:43:29;;;;;;;;;;;21.50;71.60;;;;;;5052159;28;1596;-67
2021/06/24 00:45:54;;;;;;;;;;;21.50;71.60;;;;;;5034611;28;1460;-66
2021/06/24 00:48:20;;;;;;;;;;;21.50;71.60;;;;;;5052691;28;1574;-67
2021/06/24 00:50:45;;;;;;;;;;;21.50;71.60;;;;;;5023864;28;1407;-66
2021/06/24 00:53:10;;;;;;;;;;;21.50;71.60;;;;;;5042887;28;1200;-66
2021/06/24 00:55:43;;;;;;;;;;;21.50;71.60;;;;;;5037453;28;1303;-65
2021/06/24 00:58:09;;;;;;;;;;;21.50;71.60;;;;;;5025902;28;1356;-67
2021/06/24 01:00:35;;;;;;;;;;;21.50;71.70;;;;;;5027400;28;1282;-66
2021/06/24 01:03:00;;;;;;;;;;;21.50;71.70;;;;;;5042369;28;1906;-67
2021/06/24 01:05:26;;;;;;;;;;;21.50;71.60;;;;;;5043315;28;1296;-66
2021/06/24 01:07:51;;;;;;;;;;;21.50;71.70;;;;;;5040681;28;1241;-67
2021/06/24 01:10:17;;;;;;;;;;;21.50;71.60;;;;;;5038834;28;1258;-66
2021/06/24 01:12:42;;;;;;;;;;;21.50;71.60;;;;;;5041734;28;1356;-67
2021/06/24 01:15:08;;;;;;;;;;;21.50;71.70;;;;;;5041801;28;1385;-66
2021/06/24 01:17:33;;;;;;;;;;;21.50;71.60;;;;;;5027437;28;1393;-67
2021/06/24 01:19:59;;;;;;;;;;;21.50;71.70;;;;;;5042062;28;1220;-64
2021/06/24 01:22:24;;;;;;;;;;;21.50;71.70;;;;;;5024887;28;1906;-67
2021/06/24 01:24:50;;;;;;;;;;;21.50;71.70;;;;;;5041151;28;1329;-68
2021/06/24 01:27:15;;;;;;;;;;;21.50;71.70;;;;;;5051440;28;1112;-66
2021/06/24 01:29:40;;;;;;;;;;;21.50;71.70;;;;;;5052193;28;1116;-68
2021/06/24 01:32:06;;;;;;;;;;;21.50;71.60;;;;;;5052271;28;1309;-68
2021/06/24 01:34:32;;;;;;;;;;;21.50;71.70;;;;;;5051649;28;1096;-67
2021/06/24 01:36:57;;;;;;;;;;;21.50;71.70;;;;;;5051632;28;1279;-68
2021/06/24 01:39:22;;;;;;;;;;;21.50;71.70;;;;;;5051876;28;1068;-66
2021/06/24 01:41:54;;;;;;;;;;;21.50;71.70;;;;;;5052378;28;2013;-67
2021/06/24 01:44:30;;;;;;;;;;;21.50;71.70;;;;;;5051437;28;1059;-68
2021/06/24 01:46:55;;;;;;;;;;;21.50;72.40;;;;;;5051688;28;1188;-68
2021/06/24 01:49:21;;;;;;;;;;;21.50;71.70;;;;;;5052124;28;969;-67
2021/06/24 01:51:46;;;;;;;;;;;21.50;71.70;;;;;;5051877;28;1112;-67
2021/06/24 01:54:11;;;;;;;;;;;21.50;71.70;;;;;;5051502;28;1139;-68
2021/06/24 01:56:37;;;;;;;;;;;21.50;71.70;;;;;;5048352;22;3534;-70
2021/06/24 01:59:02;;;;;;;;;;;21.50;71.70;;;;;;5010049;28;1677;-70
2021/06/24 02:01:28;;;;;;;;;;;21.50;71.60;;;;;;5012712;28;1910;-70
2021/06/24 02:03:53;;;;;;;;;;;21.50;71.70;;;;;;5014431;28;1379;-70
2021/06/24 02:06:19;;;;;;;;;;;21.50;71.70;;;;;;4998331;28;1310;-70
2021/06/24 02:08:44;;;;;;;;;;;21.50;71.70;;;;;;5016414;28;1723;-69
2021/06/24 02:11:10;;;;;;;;;;;21.50;71.70;;;;;;5016579;28;1170;-69
2021/06/24 02:13:35;;;;;;;;;;;21.50;71.90;;;;;;5015431;28;1557;-69
2021/06/24 02:16:00;;;;;;;;;;;21.50;71.70;;;;;;5016084;28;1648;-69
2021/06/24 02:18:26;;;;;;;;;;;21.50;71.70;;;;;;5016393;28;1394;-70
2021/06/24 02:20:51;;;;;;;;;;;21.50;71.70;;;;;;5015922;28;1890;-69
2021/06/24 02:23:17;;;;;;;;;;;21.50;71.70;;;;;;4997711;28;1364;-69
2021/06/24 02:25:42;;;;;;;;;;;21.50;71.70;;;;;;4998635;28;1597;-69
2021/06/24 02:28:08;;;;;;;;;;;21.50;71.70;;;;;;5016260;28;1286;-69
2021/06/24 02:30:33;;;;;;;;;;;21.50;71.60;;;;;;5015950;28;1389;-69
2021/06/24 02:32:59;;;;;;;;;;;21.50;71.70;;;;;;4998476;28;1731;-69
2021/06/24 02:35:24;;;;;;;;;;;21.50;71.70;;;;;;4998223;28;1211;-69
2021/06/24 02:37:50;;;;;;;;;;;21.50;71.70;;;;;;4998316;28;1321;-69
2021/06/24 02:40:16;;;;;;;;;;;21.50;71.70;;;;;;4998652;28;1383;-70
2021/06/24 02:42:41;;;;;;;;;;;21.50;71.70;;;;;;4998456;28;1902;-71
2021/06/24 02:45:07;;;;;;;;;;;21.50;71.70;;;;;;4997939;28;1272;-71
2021/06/24 02:47:32;;;;;;;;;;;21.50;71.70;;;;;;4998006;28;1399;-70
2021/06/24 02:49:58;;;;;;;;;;;21.50;71.70;;;;;;4998416;28;1370;-71
2021/06/24 02:52:23;;;;;;;;;;;21.50;71.70;;;;;;4998260;28;1163;-71
2021/06/24 02:54:51;;;;;;;;;;;21.50;71.80;;;;;;4988162;28;1175;-71
2021/06/24 02:57:16;;;;;;;;;;;21.50;71.70;;;;;;5011921;28;1320;-70
2021/06/24 02:59:41;;;;;;;;;;;21.50;71.70;;;;;;5015355;28;1417;-70
2021/06/24 03:02:07;;;;;;;;;;;21.50;71.70;;;;;;5015485;28;1910;-70
2021/06/24 03:04:32;;;;;;;;;;;21.50;71.70;;;;;;5014820;28;1394;-70
2021/06/24 03:06:58;;;;;;;;;;;21.50;71.80;;;;;;5012831;28;1434;-70
2021/06/24 03:09:24;;;;;;;;;;;21.50;71.70;;;;;;5005074;28;896;-70
2021/06/24 03:11:49;;;;;;;;;;;21.50;71.70;;;;;;5015534;28;1222;-70
2021/06/24 03:14:15;;;;;;;;;;;21.50;71.70;;;;;;5013970;28;852;-70
2021/06/24 03:16:40;;;;;;;;;;;21.50;71.70;;;;;;4997737;28;1422;-70
2021/06/24 03:19:06;;;;;;;;;;;21.50;71.70;;;;;;5015434;28;1167;-70
2021/06/24 03:21:31;;;;;;;;;;;21.50;71.70;;;;;;5001612;28;1945;-70
2021/06/24 03:23:57;;;;;;;;;;;21.50;71.70;;;;;;5014446;28;1656;-69
2021/06/24 03:26:22;;;;;;;;;;;21.50;71.80;;;;;;5015048;28;1347;-69
2021/06/24 03:28:48;;;;;;;;;;;21.50;71.70;;;;;;5015415;28;816;-69
2021/06/24 03:31:13;;;;;;;;;;;21.50;71.80;;;;;;5015030;28;875;-69
2021/06/24 03:33:38;;;;;;;;;;;21.50;71.70;;;;;;5014014;28;1132;-70
2021/06/24 03:36:04;;;;;;;;;;;21.50;71.70;;;;;;5014675;28;1691;-69
2021/06/24 03:38:29;;;;;;;;;;;21.50;71.70;;;;;;5015462;28;992;-71
2021/06/24 03:40:55;;;;;;;;;;;21.50;71.70;;;;;;5011565;28;1919;-71
2021/06/24 03:43:20;;;;;;;;;;;21.50;71.70;;;;;;5014146;28;1385;-71
2021/06/24 03:45:46;;;;;;;;;;;21.50;71.70;;;;;;5014589;28;1291;-71
2021/06/24 03:48:11;;;;;;;;;;;21.50;71.70;;;;;;5014637;28;1093;-71
2021/06/24 03:50:37;;;;;;;;;;;21.50;71.70;;;;;;5014399;28;1693;-71
2021/06/24 03:53:02;;;;;;;;;;;21.50;71.70;;;;;;5013695;28;1671;-71
2021/06/24 03:55:46;;;;;;;;;;;21.50;71.70;;;;;;5014299;28;1653;-71
2021/06/24 03:58:12;;;;;;;;;;;21.50;71.80;;;;;;5003960;28;1178;-70
2021/06/24 04:00:38;;;;;;;;;;;21.50;71.70;;;;;;4994574;28;1382;-70
2021/06/24 04:03:04;;;;;;;;;;;21.50;71.80;;;;;;4996583;28;1910;-71
2021/06/24 04:05:32;;;;;;;;;;;21.50;71.70;;;;;;5014096;28;1357;-71
2021/06/24 04:07:58;;;;;;;;;;;21.50;71.80;;;;;;5014537;28;1689;-70
2021/06/24 04:10:24;;;;;;;;;;;21.50;71.70;;;;;;4996335;28;1736;-69
2021/06/24 04:12:49;;;;;;;;;;;21.50;71.70;;;;;;4996076;28;898;-69
2021/06/24 04:15:15;;;;;;;;;;;21.50;71.80;;;;;;4996777;28;1263;-69
2021/06/24 04:17:40;;;;;;;;;;;21.50;71.80;;;;;;4996952;28;1418;-70
2021/06/24 04:20:06;;;;;;;;;;;21.50;71.70;;;;;;5014345;28;1397;-69
2021/06/24 04:22:31;;;;;;;;;;;21.50;71.80;;;;;;4996277;28;1890;-69
2021/06/24 04:24:57;;;;;;;;;;;21.50;71.80;;;;;;5013041;28;1435;-69
2021/06/24 04:27:22;;;;;;;;;;;21.50;71.70;;;;;;5013158;28;1381;-70
2021/06/24 04:29:48;;;;;;;;;;;21.50;71.70;;;;;;5013742;28;1662;-69
2021/06/24 04:32:13;;;;;;;;;;;21.50;71.80;;;;;;5013662;28;1371;-70
2021/06/24 04:34:38;;;;;;;;;;;21.50;71.80;;;;;;5013017;28;1028;-69
2021/06/24 04:37:04;;;;;;;;;;;21.50;71.80;;;;;;5013644;28;1406;-70
2021/06/24 04:39:29;;;;;;;;;;;21.50;71.70;;;;;;5011592;28;1396;-70
2021/06/24 04:41:55;;;;;;;;;;;21.50;71.80;;;;;;4996366;28;1907;-70
2021/06/24 04:44:20;;;;;;;;;;;21.50;71.80;;;;;;5011840;28;1230;-69
2021/06/24 04:46:46;;;;;;;;;;;21.50;71.70;;;;;;4996047;28;1376;-70
2021/06/24 04:49:11;;;;;;;;;;;21.50;71.80;;;;;;5013546;28;1440;-70
2021/06/24 04:51:36;;;;;;;;;;;21.50;71.80;;;;;;5013372;28;1449;-69
2021/06/24 04:54:02;;;;;;;;;;;21.50;71.80;;;;;;5013080;28;1702;-69
2021/06/24 04:56:28;;;;;;;;;;;21.50;71.80;;;;;;5013076;28;1404;-69
2021/06/24 04:58:53;;;;;;;;;;;21.50;71.80;;;;;;4995655;28;1197;-69
2021/06/24 05:01:19;;;;;;;;;;;21.50;71.80;;;;;;5013195;28;1965;-69
2021/06/24 05:03:44;;;;;;;;;;;21.50;71.80;;;;;;5012306;28;1074;-69
2021/06/24 05:06:11;;;;;;;;;;;21.50;71.80;;;;;;5013122;28;1467;-69
2021/06/24 05:08:36;;;;;;;;;;;21.50;71.80;;;;;;5013186;28;1201;-70
2021/06/24 05:11:02;;;;;;;;;;;21.50;71.80;;;;;;5013253;28;1368;-71
2021/06/24 05:13:27;;;;;;;;;;;21.50;71.80;;;;;;4995192;28;1247;-71
2021/06/24 05:15:53;;;;;;;;;;;21.50;71.80;;;;;;5012974;28;1420;-70
2021/06/24 05:18:18;;;;;;;;;;;21.50;71.90;;;;;;4995684;28;879;-70
2021/06/24 05:20:44;;;;;;;;;;;21.50;71.80;;;;;;4995598;28;804;-70
2021/06/24 05:23:10;;;;;;;;;;;21.50;71.80;;;;;;5012458;28;1899;-71
2021/06/24 05:25:37;;;;;;;;;;;21.50;71.90;;;;;;4995221;28;1357;-69
2021/06/24 05:28:03;;;;;;;;;;;21.50;71.80;;;;;;5012570;28;1687;-69
2021/06/24 05:30:28;;;;;;;;;;;21.50;71.90;;;;;;5012746;28;1352;-69
2021/06/24 05:32:54;;;;;;;;;;;21.50;71.80;;;;;;5012418;28;1460;-69
2021/06/24 05:35:19;;;;;;;;;;;21.50;71.80;;;;;;5012638;28;1645;-69
2021/06/24 05:37:45;;;;;;;;;;;21.50;71.90;;;;;;5012466;28;1536;-69
2021/06/24 05:40:10;;;;;;;;;;;21.50;71.90;;;;;;4995109;28;1420;-69
2021/06/24 05:42:36;;;;;;;;;;;21.50;71.80;;;;;;5012842;28;1948;-69
2021/06/24 05:45:01;;;;;;;;;;;21.50;71.90;;;;;;5011967;28;1379;-69
2021/06/24 05:47:27;;;;;;;;;;;21.50;71.80;;;;;;4994954;28;1376;-69
2021/06/24 05:49:52;;;;;;;;;;;21.50;71.90;;;;;;5012941;28;1437;-70
2021/06/24 05:52:18;;;;;;;;;;;21.50;71.80;;;;;;5012763;28;1232;-70
2021/06/24 05:54:43;;;;;;;;;;;21.50;71.90;;;;;;5011759;28;1650;-70
2021/06/24 05:57:08;;;;;;;;;;;21.50;71.80;;;;;;5012731;28;1707;-70
2021/06/24 05:59:34;;;;;;;;;;;21.50;71.90;;;;;;5012747;28;1460;-70
2021/06/24 06:01:59;;;;;;;;;;;21.50;71.90;;;;;;4999481;28;1963;-70
2021/06/24 06:04:25;;;;;;;;;;;21.50;71.90;;;;;;4994443;28;1104;-70
2021/06/24 06:06:50;;;;;;;;;;;21.50;71.80;;;;;;5012205;28;1569;-70
2021/06/24 06:09:16;;;;;;;;;;;21.50;71.90;;;;;;5012823;28;1267;-70
2021/06/24 06:11:43;;;;;;;;;;;21.50;71.80;;;;;;4994439;28;1552;-70
2021/06/24 06:14:09;;;;;;;;;;;21.50;71.70;;;;;;5011789;28;815;-72
2021/06/24 06:16:34;;;;;;;;;;;21.50;71.80;;;;;;4994389;28;1663;-69
2021/06/24 06:19:00;;;;;;;;;;;21.50;71.80;;;;;;4995301;28;768;-70
2021/06/24 06:21:29;;;;;;;;;;;21.50;71.80;;;;;;5012301;28;1955;-70
2021/06/24 06:23:54;;;;;;;;;;;21.50;71.90;;;;;;5012187;28;1173;-70
2021/06/24 06:26:19;;;;;;;;;;;21.50;71.90;;;;;;4995249;28;1262;-69
2021/06/24 06:28:45;;;;;;;;;;;21.50;71.90;;;;;;4978527;28;1195;-70
2021/06/24 06:31:11;;;;;;;;;;;21.50;71.90;;;;;;5012366;28;1474;-73
2021/06/24 06:33:36;;;;;;;;;;;21.50;71.90;;;;;;5011226;28;926;-72
2021/06/24 06:36:02;;;;;;;;;;;21.50;71.90;;;;;;5012173;28;1489;-73
2021/06/24 06:38:28;;;;;;;;;;;21.50;71.90;;;;;;5012599;28;1017;-69
2021/06/24 06:40:53;;;;;;;;;;;21.50;71.90;;;;;;5012269;28;1395;-69
2021/06/24 06:43:19;;;;;;;;;;;21.50;71.90;;;;;;5011088;28;1898;-69
2021/06/24 06:45:45;;;;;;;;;;;21.50;71.90;;;;;;5011982;28;1365;-68
2021/06/24 06:48:11;;;;;;;;;;;21.50;71.90;;;;;;4994617;28;863;-69
2021/06/24 06:50:37;;;;;;;;;;;21.50;71.90;;;;;;5015231;28;1445;-69
2021/06/24 06:53:03;;;;;;;;;;;21.50;71.90;;;;;;5015011;28;1382;-69
2021/06/24 06:55:28;;;;;;;;;;;21.50;71.90;;;;;;5015542;28;1346;-69
2021/06/24 06:57:55;;;;;;;;;;;21.50;71.90;;;;;;5015626;28;1691;-70
2021/06/24 07:00:23;;;;;;;;;;;21.50;71.90;;;;;;4997867;28;1701;-70
2021/06/24 07:02:48;;;;;;;;;;;21.50;71.90;;;;;;4997522;28;1906;-70
2021/06/24 07:05:14;;;;;;;;;;;21.50;71.90;;;;;;4997489;28;1390;-70
2021/06/24 07:07:39;;;;;;;;;;;21.50;71.90;;;;;;5015770;28;1682;-70
2021/06/24 07:10:05;;;;;;;;;;;21.50;71.90;;;;;;5015532;28;1379;-70
2021/06/24 07:12:31;;;;;;;;;;;21.50;71.90;;;;;;5016126;28;1680;-70
2021/06/24 07:14:56;;;;;;;;;;;21.50;71.90;;;;;;5015364;28;1444;-70
2021/06/24 07:17:22;;;;;;;;;;;21.50;71.90;;;;;;4997669;28;1187;-71
2021/06/24 07:19:47;;;;;;;;;;;21.50;72.00;;;;;;4997971;28;1427;-70
2021/06/24 07:22:13;;;;;;;;;;;21.50;71.90;;;;;;5015267;28;1902;-69
2021/06/24 07:24:38;;;;;;;;;;;21.50;71.90;;;;;;5014336;28;1625;-70
2021/06/24 07:27:04;;;;;;;;;;;21.50;71.90;;;;;;5014134;28;2127;-71
2021/06/24 07:29:29;;;;;;;;;;;21.50;72.00;;;;;;5006084;28;2431;-71
2021/06/24 07:31:55;;;;;;;;;;;21.50;72.00;;;;;;5014603;28;1625;-71
2021/06/24 07:34:20;;;;;;;;;;;21.50;71.90;;;;;;5013004;28;1349;-71
2021/06/24 07:36:46;;;;;;;;;;;21.50;71.90;;;;;;5014684;28;1382;-71
2021/06/24 07:39:12;;;;;;;;;;;21.50;72.00;;;;;;5014597;28;1605;-71
2021/06/24 07:41:37;;;;;;;;;;;21.50;72.00;;;;;;4997306;28;1952;-70
2021/06/24 07:44:03;;;;;;;;;;;21.50;72.00;;;;;;5014071;28;1604;-70
2021/06/24 07:46:28;;;;;;;;;;;21.50;71.90;;;;;;4997204;28;1156;-71
2021/06/24 07:48:54;;;;;;;;;;;21.50;71.90;;;;;;5014318;28;1448;-69
2021/06/24 07:51:19;;;;;;;;;;;21.50;71.90;;;;;;5014863;28;1577;-71
2021/06/24 07:53:45;;;;;;;;;;;21.50;71.80;;;;;;5013980;28;1564;-71
2021/06/24 07:56:10;;;;;;;;;;;21.50;71.90;;;;;;4996963;28;1311;-71
2021/06/24 07:58:36;;;;;;;;;;;21.50;71.80;;;;;;5014506;28;1207;-70
2021/06/24 08:01:02;;;;;;;;;;;21.50;71.80;;;;;;5014336;28;1186;-69
2021/06/24 08:03:27;;;;;;;;;;;21.50;71.90;;;;;;5013799;28;1962;-69
2021/06/24 08:05:53;;;;;;;;;;;21.50;71.90;;;;;;5014142;28;1369;-70
2021/06/24 08:08:18;;;;;;;;;;;21.50;71.90;;;;;;5014434;28;1428;-69
2021/06/24 08:13:16;;;;;;;;;;;21.50;71.90;;;;;;4974669;28;2128;-68
2021/06/24 08:15:41;;;;;;;;;;;21.50;71.90;;;;;;4975044;28;1526;-67
2021/06/24 08:18:07;;;;;;;;;;;21.50;71.90;;;;;;4981884;28;1432;-66
2021/06/24 08:20:32;;;;;;;;;;;21.50;71.90;;;;;;4975062;28;1526;-67
2021/06/24 08:22:58;;;;;;;;;;;21.50;72.00;;;;;;4974536;28;1911;-67
2021/06/24 08:25:23;;;;;;;;;;;21.50;72.00;;;;;;4975352;28;1690;-65
2021/06/24 08:27:50;;;;;;;;;;;21.50;71.90;;;;;;4955190;28;2047;-67
2021/06/24 08:30:15;;;;;;;;;;;21.50;72.00;;;;;;4973804;28;1408;-66
2021/06/24 08:32:41;;;;;;;;;;;21.50;72.00;;;;;;4983458;28;1546;-67
2021/06/24 08:35:08;;;;;;;;;;;21.50;72.00;;;;;;4972956;28;1365;-67
2021/06/24 08:37:34;;;;;;;;;;;21.50;72.00;;;;;;4974391;28;1527;-66
2021/06/24 08:39:59;;;;;;;;;;;21.50;72.00;;;;;;4973532;28;1334;-67
2021/06/24 08:42:24;;;;;;;;;;;21.50;72.00;;;;;;4968969;28;2121;-67
2021/06/24 08:44:50;;;;;;;;;;;21.50;72.00;;;;;;4970142;28;1919;-67
2021/06/24 08:47:16;;;;;;;;;;;21.50;72.00;;;;;;4990186;28;1592;-67
2021/06/24 08:49:41;;;;;;;;;;;21.50;72.00;;;;;;4974056;28;1234;-67
2021/06/24 08:52:07;;;;;;;;;;;21.50;72.00;;;;;;4974575;28;1684;-67
2021/06/24 08:54:32;;;;;;;;;;;21.50;72.00;;;;;;4974114;28;1405;-67
2021/06/24 08:56:58;;;;;;;;;;;21.50;72.00;;;;;;4974111;28;1663;-67
2021/06/24 08:59:23;;;;;;;;;;;21.50;72.00;;;;;;4970995;28;1668;-66
2021/06/24 09:01:53;;;;;;;;;;;21.50;72.10;;;;;;4968899;28;1964;-66
2021/06/24 09:04:19;;;;;;;;;;;21.50;72.10;;;;;;4973566;28;1355;-67
2021/06/24 09:06:44;;;;;;;;;;;21.50;72.10;;;;;;4974020;28;1626;-67
2021/06/24 09:09:16;;;;;;;;;;;21.50;72.00;;;;;;4974077;28;1675;-67
2021/06/24 09:11:45;;;;;;;;;;;21.50;72.00;;;;;;4973365;28;1588;-64
2021/06/24 09:14:12;;;;;;;;;;;21.50;72.00;;;;;;4973834;28;1706;-67
2021/06/24 09:16:38;;;;;;;;;;;21.50;72.00;;;;;;4973972;28;1873;-65
2021/06/24 09:19:12;;;;;;;;;;;21.50;72.10;;;;;;4972881;28;1704;-66
2021/06/24 09:21:37;;;;;;;;;;;21.50;72.00;;;;;;4973933;28;1899;-64
2021/06/24 09:24:03;;;;;;;;;;;21.50;72.00;;;;;;4970614;28;1626;-67
2021/06/24 09:26:28;;;;;;;;;;;21.50;71.90;;;;;;4971545;28;1463;-66
2021/06/24 09:28:54;;;;;;;;;;;21.50;71.90;;;;;;4970418;28;1659;-66
2021/06/24 09:31:21;;;;;;;;;;;21.50;71.90;;;;;;4967949;28;1620;-65
2021/06/24 09:33:46;;;;;;;;;;;21.50;71.90;;;;;;4966114;28;1178;-66
2021/06/24 09:36:11;;;;;;;;;;;21.50;71.80;;;;;;4971764;28;1537;-66
2021/06/24 09:38:40;;;;;;;;;;;21.50;71.80;;;;;;4971933;28;1635;-67
2021/06/24 09:41:06;;;;;;;;;;;21.50;71.80;;;;;;4972019;28;1579;-67
2021/06/24 09:43:34;;;;;;;;;;;21.50;71.90;;;;;;4971737;28;1903;-66
2021/06/24 09:46:18;;;;;;;;;;;21.50;71.90;;;;;;4973267;28;1609;-66
2021/06/24 09:48:46;;;;;;;;;;;21.50;71.90;;;;;;4972328;28;1602;-66
2021/06/24 09:51:25;;;;;;;;;;;21.50;71.90;;;;;;4973420;28;1694;-67
2021/06/24 09:53:51;;;;;;;;;;;21.50;71.90;;;;;;4972865;28;1589;-66
2021/06/24 09:56:23;;;;;;;;;;;21.50;71.90;;;;;;4972466;28;1383;-66
2021/06/24 09:58:49;;;;;;;;;;;21.50;71.90;;;;;;4973444;28;1520;-65
2021/06/24 10:01:27;;;;;;;;;;;21.50;72.00;;;;;;4971583;28;1895;-67
2021/06/24 10:03:54;;;;;;;;;;;21.50;71.90;;;;;;4973451;28;1419;-65
2021/06/24 10:06:20;;;;;;;;;;;21.50;71.90;;;;;;4973867;28;1654;-67
2021/06/24 10:08:45;;;;;;;;;;;21.50;72.70;;;;;;4972508;28;1608;-66
2021/06/24 10:11:11;;;;;;;;;;;21.50;71.90;;;;;;4973653;28;1705;-66
2021/06/24 10:13:36;;;;;;;;;;;21.50;71.90;;;;;;4973509;28;1664;-66
2021/06/24 10:16:02;;;;;;;;;;;21.50;71.90;;;;;;4973108;28;1591;-66
2021/06/24 10:18:27;;;;;;;;;;;21.50;71.80;;;;;;4969909;28;1991;-65
2021/06/24 10:20:53;;;;;;;;;;;21.50;71.90;;;;;;4976155;28;1878;-67
2021/06/24 10:23:18;;;;;;;;;;;21.50;71.90;;;;;;4980211;28;1902;-67
2021/06/24 10:25:44;;;;;;;;;;;21.50;71.80;;;;;;4992504;28;1569;-65
2021/06/24 10:28:09;;;;;;;;;;;21.50;71.90;;;;;;4977608;28;1374;-67
2021/06/24 10:30:39;;;;;;;;;;;21.50;71.90;;;;;;4980427;28;1441;-67
2021/06/24 10:33:12;;;;;;;;;;;21.50;72.50;;;;;;4971637;28;1387;-63
2021/06/24 10:35:38;;;;;;;;;;;21.50;72.80;;;;;;4974304;28;1198;-66
2021/06/24 10:38:04;;;;;;;;;;;21.50;72.50;;;;;;4975343;28;1803;-67
2021/06/24 10:40:33;;;;;;;;;;;21.50;72.50;;;;;;4967925;28;1432;-66
2021/06/24 10:43:06;;;;;;;;;;;21.50;72.70;;;;;;4968026;28;1990;-66
2021/06/24 10:45:31;;;;;;;;;;;21.50;72.50;;;;;;4973432;28;1613;-67
2021/06/24 10:47:57;;;;;;;;;;;21.50;72.40;;;;;;4975105;28;1566;-65
2021/06/24 10:50:36;;;;;;;;;;;21.50;72.40;;;;;;4973762;28;1556;-68
2021/06/24 10:53:02;;;;;;;;;;;21.50;72.40;;;;;;4972572;28;1487;-66
2021/06/24 10:55:37;;;;;;;;;;;21.50;72.40;;;;;;4971438;28;1497;-67
2021/06/24 10:58:03;;;;;;;;;;;21.50;72.30;;;;;;4968568;28;1514;-68
2021/06/24 11:00:35;;;;;;;;;;;21.50;72.20;;;;;;4969117;28;1573;-66
2021/06/24 11:03:01;;;;;;;;;;;21.50;72.20;;;;;;4968768;28;1966;-67
2021/06/24 11:05:33;;;;;;;;;;;21.50;72.30;;;;;;4971580;28;1622;-67
2021/06/24 11:07:59;;;;;;;;;;;21.50;72.20;;;;;;4971870;28;1709;-65
2021/06/24 11:10:26;;;;;;;;;;;21.50;72.20;;;;;;4975903;28;1661;-67
2021/06/24 11:12:51;;;;;;;;;;;21.50;72.10;;;;;;4974029;28;1375;-66
2021/06/24 11:15:35;;;;;;;;;;;21.50;72.10;;;;;;4975485;28;1468;-67
2021/06/24 11:18:00;;;;;;;;;;;21.50;72.10;;;;;;4975729;28;1206;-67
2021/06/24 11:20:29;;;;;;;;;;;21.50;72.00;;;;;;4975765;28;1377;-66
2021/06/24 11:22:54;;;;;;;;;;;21.50;72.00;;;;;;4973251;28;1923;-66
2021/06/24 11:25:20;;;;;;;;;;;21.50;72.00;;;;;;4975736;28;1670;-67
2021/06/24 11:27:45;;;;;;;;;;;21.50;72.00;;;;;;4975185;28;1636;-67
2021/06/24 11:30:12;;;;;;;;;;;21.50;72.00;;;;;;4974084;28;1606;-66
2021/06/24 11:32:39;;;;;;;;;;;21.50;71.80;;;;;;4975624;28;1539;-67
2021/06/24 11:35:17;;;;;;;;;;;21.50;71.90;;;;;;4973985;28;1647;-66
2021/06/24 11:37:42;;;;;;;;;;;21.50;71.90;;;;;;4975585;28;1557;-67
2021/06/24 11:40:08;;;;;;;;;;;21.50;71.90;;;;;;4975835;28;1455;-67
2021/06/24 11:42:40;;;;;;;;;;;21.50;71.90;;;;;;4974829;28;1962;-67
2021/06/24 11:45:06;;;;;;;;;;;21.50;72.00;;;;;;4974132;28;1381;-67
2021/06/24 11:47:32;;;;;;;;;;;21.50;71.90;;;;;;4974912;28;1352;-67
2021/06/24 12:03:26;;;;;;;;;;;21.50;72.00;;;;;;4970964;28;1952;-68
2021/06/24 12:05:52;;;;;;;;;;;21.50;71.90;;;;;;4973363;28;1392;-66
2021/06/24 12:08:24;;;;;;;;;;;21.50;71.80;;;;;;4974821;28;1376;-67
2021/06/24 12:10:50;;;;;;;;;;;21.50;71.80;;;;;;4974369;28;1350;-67
2021/06/24 12:13:28;;;;;;;;;;;21.50;71.90;;;;;;4973577;28;1616;-67
2021/06/24 12:15:54;;;;;;;;;;;21.50;71.90;;;;;;4969180;28;2266;-67
2021/06/24 12:18:30;;;;;;;;;;;21.50;71.90;;;;;;4981649;28;1392;-68
2021/06/24 12:21:05;;;;;;;;;;;21.50;71.90;;;;;;4988414;28;1609;-68
2021/06/24 12:23:31;;;;;;;;;;;21.50;71.90;;;;;;4981802;28;1887;-68
2021/06/24 12:25:59;;;;;;;;;;;21.50;71.90;;;;;;4973193;28;1668;-66
2021/06/24 12:28:25;;;;;;;;;;;21.50;71.90;;;;;;4957207;28;1388;-68
2021/06/24 12:30:51;;;;;;;;;;;21.50;71.90;;;;;;4989016;28;1516;-67
2021/06/24 12:33:17;;;;;;;;;;;21.50;71.90;;;;;;4960243;28;1606;-67
2021/06/24 12:35:43;;;;;;;;;;;21.50;71.90;;;;;;4981028;28;1387;-67
2021/06/24 12:38:09;;;;;;;;;;;21.50;71.90;;;;;;4980156;28;1575;-66
2021/06/24 12:40:36;;;;;;;;;;;21.50;71.90;;;;;;4974312;28;1392;-66
2021/06/24 12:43:01;;;;;;;;;;;21.50;71.90;;;;;;4972840;28;1895;-68
2021/06/24 12:45:27;;;;;;;;;;;21.50;71.90;;;;;;4972870;28;1177;-66
2021/06/24 12:47:53;;;;;;;;;;;21.50;71.90;;;;;;4973569;28;1384;-66
2021/06/24 12:50:20;;;;;;;;;;;21.50;71.90;;;;;;4973972;28;1367;-67
2021/06/24 12:52:49;;;;;;;;;;;21.50;71.90;;;;;;4973597;28;1664;-68
2021/06/24 12:55:37;;;;;;;;;;;21.50;71.90;;;;;;4956313;28;1543;-67
2021/06/24 12:58:03;;;;;;;;;;;21.50;71.90;;;;;;4973734;28;1595;-68
2021/06/24 13:00:28;;;;;;;;;;;21.50;71.90;;;;;;4973784;28;1644;-68
2021/06/24 13:02:54;;;;;;;;;;;21.50;71.90;;;;;;4972098;28;1958;-68
2021/06/24 13:05:26;;;;;;;;;;;21.50;71.90;;;;;;4973779;28;1654;-67
2021/06/24 13:07:58;;;;;;;;;;;21.50;71.90;;;;;;4973012;28;1665;-68
2021/06/24 13:10:23;;;;;;;;;;;21.50;71.80;;;;;;4973967;28;1366;-68
2021/06/24 13:12:48;;;;;;;;;;;21.50;71.90;;;;;;4973042;28;1622;-67
2021/06/24 13:15:33;;;;;;;;;;;21.50;71.90;;;;;;4972533;28;1653;-66
2021/06/24 13:17:59;;;;;;;;;;;21.50;71.90;;;;;;4973970;28;1442;-67
2021/06/24 13:20:24;;;;;;;;;;;21.50;72.60;;;;;;4973779;28;1680;-68
2021/06/24 13:22:49;;;;;;;;;;;21.50;71.90;;;;;;4971629;28;1902;-65
2021/06/24 13:25:19;;;;;;;;;;;21.50;71.90;;;;;;4971437;28;1760;-67
2021/06/24 13:27:45;;;;;;;;;;;21.50;71.80;;;;;;4972040;28;1496;-67
2021/06/24 13:30:12;;;;;;;;;;;21.50;71.80;;;;;;4973414;28;1652;-68
2021/06/24 13:32:41;;;;;;;;;;;21.50;71.80;;;;;;4972840;28;1553;-67
2021/06/24 13:35:16;;;;;;;;;;;21.50;71.90;;;;;;4972994;28;1591;-66
2021/06/24 13:37:47;;;;;;;;;;;21.50;71.90;;;;;;4973469;28;1682;-67
2021/06/24 13:40:16;;;;;;;;;;;21.50;71.90;;;;;;4970752;28;1384;-67
2021/06/24 13:42:48;;;;;;;;;;;21.50;71.90;;;;;;4966673;28;1930;-66
2021/06/24 13:45:14;;;;;;;;;;;21.50;71.90;;;;;;4964855;28;1190;-67
2021/06/24 13:47:39;;;;;;;;;;;21.50;71.90;;;;;;4967477;28;1343;-68
2021/06/24 13:50:05;;;;;;;;;;;21.50;71.90;;;;;;4966133;28;1288;-67
2021/06/24 13:52:31;;;;;;;;;;;21.50;71.90;;;;;;4968775;28;1339;-67
2021/06/24 13:54:57;;;;;;;;;;;21.50;71.90;;;;;;4966221;28;1388;-68
2021/06/24 13:57:22;;;;;;;;;;;21.50;71.90;;;;;;4966560;28;1371;-68
2021/06/24 13:59:48;;;;;;;;;;;21.50;71.90;;;;;;4969281;28;1123;-67
2021/06/24 14:02:13;;;;;;;;;;;21.50;71.90;;;;;;4972354;28;1903;-69
2021/06/24 14:04:39;;;;;;;;;;;21.50;71.90;;;;;;4976362;28;1582;-68
2021/06/24 14:07:04;;;;;;;;;;;21.50;71.90;;;;;;4977060;28;1411;-68
2021/06/24 14:09:30;;;;;;;;;;;21.50;71.90;;;;;;4976072;28;1447;-68
2021/06/24 14:11:55;;;;;;;;;;;21.50;71.90;;;;;;5016433;22;3746;-69
2021/06/24 14:14:21;;;;;;;;;;;21.50;71.90;;;;;;5035769;28;1221;-69
2021/06/24 14:16:46;;;;;;;;;;;21.50;71.90;;;;;;5036650;28;1429;-70
2021/06/24 14:19:12;;;;;;;;;;;21.50;72.00;;;;;;5019045;28;1688;-69
2021/06/24 14:21:38;;;;;;;;;;;21.50;71.90;;;;;;5032862;28;1980;-70
2021/06/24 14:24:04;;;;;;;;;;;21.50;72.00;;;;;;4998607;28;1270;-69
2021/06/24 14:26:30;;;;;;;;;;;21.50;72.00;;;;;;4983234;28;1178;-69
2021/06/24 14:28:55;;;;;;;;;;;21.50;71.90;;;;;;4998762;28;1331;-69
2021/06/24 14:31:21;;;;;;;;;;;21.50;72.00;;;;;;4982700;28;1347;-72
2021/06/24 14:33:46;;;;;;;;;;;21.50;71.90;;;;;;5016296;28;1146;-70
2021/06/24 14:36:12;;;;;;;;;;;21.50;71.90;;;;;;5015452;28;2113;-71
2021/06/24 14:38:38;;;;;;;;;;;21.50;71.90;;;;;;4997367;28;2204;-71
2021/06/24 14:41:03;;;;;;;;;;;21.50;71.90;;;;;;4998221;28;1567;-70
2021/06/24 14:43:29;;;;;;;;;;;21.50;71.90;;;;;;5015988;28;1938;-71